AFL798 UWUU-LTAI
Flight info
| Callsign | AFL798 |
|---|---|
| Flight time | 4h 4m |
| Altitude | 34000 |
| Route | GAPMA3N GAPMA DCT EKTEN DCT KOLIB DCT IPLED DCT MKL/N0450F340 DCT GIMUR/N0453F360 DCT SARPI DCT TBN DCT EBUVI DCT URKAN DCT KETEK DCT ADASU |
| Aircraft | A321/M-SDE3FGHIRWY/LB1 |
Departure
| Time | 2026-05-08 09:31 |
|---|---|
| Airport | Ufa International Airport (UWUU) |
Arrival
| Time | 2026-05-08 13:35 |
|---|---|
| Airport | Antalya International Airport (LTAI) |
| Time | Latitude | Longitude | Altitude | Speed | Heading |
|---|---|---|---|---|---|
| 2026-05-08 08:59 | 54.56504 | 55.88293 | 450 ft | 0 kts | 61° |
| 2026-05-08 09:24 | 54.56495 | 55.88267 | 450 ft | 4 kts | 61° |
| 2026-05-08 09:24 | 54.56484 | 55.88230 | 450 ft | 2 kts | 61° |
| 2026-05-08 09:24 | 54.56474 | 55.88193 | 450 ft | 4 kts | 82° |
| 2026-05-08 09:25 | 54.56477 | 55.88154 | 450 ft | 4 kts | 136° |
| 2026-05-08 09:25 | 54.56484 | 55.88143 | 450 ft | 0 kts | 154° |
| 2026-05-08 09:27 | 54.56459 | 55.88162 | 450 ft | 9 kts | 165° |
| 2026-05-08 09:27 | 54.56391 | 55.88074 | 450 ft | 18 kts | 238° |
| 2026-05-08 09:27 | 54.56317 | 55.87849 | 451 ft | 23 kts | 241° |
| 2026-05-08 09:27 | 54.56240 | 55.87615 | 450 ft | 22 kts | 240° |
| 2026-05-08 09:28 | 54.56168 | 55.87394 | 450 ft | 20 kts | 240° |
| 2026-05-08 09:28 | 54.56101 | 55.87190 | 450 ft | 19 kts | 240° |
| 2026-05-08 09:28 | 54.56040 | 55.87006 | 450 ft | 17 kts | 241° |
| 2026-05-08 09:28 | 54.55984 | 55.86837 | 450 ft | 15 kts | 240° |
| 2026-05-08 09:29 | 54.55934 | 55.86685 | 450 ft | 14 kts | 241° |
| 2026-05-08 09:29 | 54.55890 | 55.86551 | 450 ft | 12 kts | 241° |
| 2026-05-08 09:29 | 54.55854 | 55.86442 | 450 ft | 9 kts | 240° |
| 2026-05-08 09:29 | 54.55856 | 55.86347 | 450 ft | 8 kts | 310° |
| 2026-05-08 09:30 | 54.55867 | 55.86335 | 450 ft | 0 kts | 328° |
| 2026-05-08 09:30 | 54.55970 | 55.86229 | 453 ft | 52 kts | 330° |
| 2026-05-08 09:30 | 54.56495 | 55.85724 | 452 ft | 119 kts | 330° |
| 2026-05-08 09:30 | 54.57373 | 55.84882 | 560 ft | 159 kts | 330° |
| 2026-05-08 09:31 | 54.58324 | 55.84007 | 1284 ft | 154 kts | 333° |
| 2026-05-08 09:31 | 54.59269 | 55.83161 | 1855 ft | 154 kts | 338° |
| 2026-05-08 09:31 | 54.60390 | 55.83193 | 2069 ft | 174 kts | 25° |
| 2026-05-08 09:31 | 54.61281 | 55.84725 | 2243 ft | 197 kts | 69° |
| 2026-05-08 09:32 | 54.61581 | 55.87135 | 2431 ft | 215 kts | 80° |
| 2026-05-08 09:32 | 54.61805 | 55.89789 | 2574 ft | 233 kts | 82° |
| 2026-05-08 09:32 | 54.61954 | 55.91665 | 2835 ft | 241 kts | 82° |
| 2026-05-08 09:32 | 54.62252 | 55.95458 | 3748 ft | 242 kts | 82° |
| 2026-05-08 09:33 | 54.62477 | 55.98337 | 4391 ft | 243 kts | 82° |
| 2026-05-08 09:33 | 54.62708 | 56.01238 | 5011 ft | 245 kts | 82° |
| 2026-05-08 09:33 | 54.62879 | 56.04170 | 5624 ft | 247 kts | 93° |
| 2026-05-08 09:33 | 54.62468 | 56.07039 | 6217 ft | 249 kts | 117° |
| 2026-05-08 09:34 | 54.61404 | 56.09397 | 6811 ft | 252 kts | 141° |
| 2026-05-08 09:34 | 54.60429 | 56.10494 | 7196 ft | 254 kts | 151° |
| 2026-05-08 09:34 | 54.58343 | 56.12464 | 7979 ft | 257 kts | 150° |
| 2026-05-08 09:34 | 54.56766 | 56.13958 | 8534 ft | 260 kts | 150° |
| 2026-05-08 09:35 | 54.55199 | 56.15452 | 9095 ft | 262 kts | 150° |
| 2026-05-08 09:35 | 54.53540 | 56.16772 | 9636 ft | 265 kts | 167° |
| 2026-05-08 09:35 | 54.51700 | 56.16806 | 10154 ft | 268 kts | 195° |
| 2026-05-08 09:35 | 54.50020 | 56.15361 | 10463 ft | 281 kts | 223° |
| 2026-05-08 09:36 | 54.48890 | 56.12532 | 10610 ft | 298 kts | 248° |
| 2026-05-08 09:36 | 54.48090 | 56.09120 | 10765 ft | 317 kts | 248° |
| 2026-05-08 09:36 | 54.47533 | 56.06743 | 10862 ft | 330 kts | 248° |
| 2026-05-08 09:36 | 54.46645 | 56.02990 | 10976 ft | 348 kts | 248° |
| 2026-05-08 09:37 | 54.45708 | 55.99067 | 11267 ft | 360 kts | 248° |
| 2026-05-08 09:37 | 54.44432 | 55.93778 | 11989 ft | 364 kts | 247° |
| 2026-05-08 09:37 | 54.43453 | 55.89749 | 12563 ft | 366 kts | 247° |
| 2026-05-08 09:37 | 54.42464 | 55.85694 | 13127 ft | 369 kts | 247° |
| 2026-05-08 09:38 | 54.41793 | 55.82942 | 13488 ft | 371 kts | 247° |
| 2026-05-08 09:38 | 54.40885 | 55.78843 | 14003 ft | 374 kts | 254° |
| 2026-05-08 09:38 | 54.40255 | 55.74498 | 14519 ft | 377 kts | 256° |
| 2026-05-08 09:38 | 54.39636 | 55.70104 | 15020 ft | 380 kts | 256° |
| 2026-05-08 09:39 | 54.39010 | 55.65684 | 15520 ft | 383 kts | 256° |
| 2026-05-08 09:39 | 54.38167 | 55.59792 | 16185 ft | 386 kts | 256° |
| 2026-05-08 09:39 | 54.37524 | 55.55310 | 16650 ft | 389 kts | 256° |
| 2026-05-08 09:39 | 54.36876 | 55.50796 | 17101 ft | 391 kts | 256° |
| 2026-05-08 09:40 | 54.36443 | 55.47787 | 17422 ft | 393 kts | 256° |
| 2026-05-08 09:40 | 54.35784 | 55.43225 | 17859 ft | 395 kts | 256° |
| 2026-05-08 09:40 | 54.35123 | 55.38641 | 18276 ft | 398 kts | 256° |
| 2026-05-08 09:40 | 54.34455 | 55.34018 | 18697 ft | 401 kts | 256° |
| 2026-05-08 09:41 | 54.33780 | 55.29370 | 19106 ft | 403 kts | 256° |
| 2026-05-08 09:41 | 54.33097 | 55.24699 | 19500 ft | 405 kts | 256° |
| 2026-05-08 09:41 | 54.32409 | 55.20005 | 19897 ft | 408 kts | 256° |
| 2026-05-08 09:41 | 54.31714 | 55.15286 | 20285 ft | 410 kts | 256° |
| 2026-05-08 09:42 | 54.31010 | 55.10539 | 20664 ft | 412 kts | 256° |
| 2026-05-08 09:42 | 54.30311 | 55.05835 | 21022 ft | 414 kts | 256° |
| 2026-05-08 09:42 | 54.29599 | 55.01051 | 21381 ft | 417 kts | 256° |
| 2026-05-08 09:42 | 54.28883 | 54.96228 | 21740 ft | 419 kts | 256° |
| 2026-05-08 09:43 | 54.28161 | 54.91378 | 22086 ft | 421 kts | 256° |
| 2026-05-08 09:43 | 54.27434 | 54.86514 | 22445 ft | 423 kts | 256° |
| 2026-05-08 09:43 | 54.26700 | 54.81624 | 22777 ft | 426 kts | 256° |
| 2026-05-08 09:43 | 54.25955 | 54.76713 | 23089 ft | 428 kts | 255° |
| 2026-05-08 09:44 | 54.25203 | 54.71779 | 23404 ft | 430 kts | 256° |
| 2026-05-08 09:44 | 54.24449 | 54.66879 | 23713 ft | 432 kts | 253° |
| 2026-05-08 09:44 | 54.23333 | 54.62103 | 24019 ft | 435 kts | 242° |
| 2026-05-08 09:44 | 54.21685 | 54.57765 | 24295 ft | 437 kts | 231° |
| 2026-05-08 09:45 | 54.19573 | 54.54030 | 24586 ft | 438 kts | 219° |
| 2026-05-08 09:45 | 54.17083 | 54.51029 | 24877 ft | 439 kts | 208° |
| 2026-05-08 09:45 | 54.14342 | 54.48714 | 25156 ft | 441 kts | 205° |
| 2026-05-08 09:45 | 54.11566 | 54.46466 | 25445 ft | 443 kts | 205° |
| 2026-05-08 09:46 | 54.08776 | 54.44206 | 25726 ft | 445 kts | 205° |
| 2026-05-08 09:46 | 54.05973 | 54.41936 | 26012 ft | 447 kts | 205° |
| 2026-05-08 09:46 | 54.03202 | 54.39688 | 26283 ft | 448 kts | 205° |
| 2026-05-08 09:46 | 54.00383 | 54.37402 | 26554 ft | 450 kts | 205° |
| 2026-05-08 09:47 | 53.97551 | 54.35111 | 26809 ft | 452 kts | 205° |
| 2026-05-08 09:47 | 53.94704 | 54.32817 | 27054 ft | 453 kts | 205° |
| 2026-05-08 09:47 | 53.91849 | 54.30523 | 27305 ft | 455 kts | 205° |
| 2026-05-08 09:47 | 53.88979 | 54.28220 | 27544 ft | 457 kts | 204° |
| 2026-05-08 09:48 | 53.86099 | 54.25911 | 27776 ft | 458 kts | 205° |
| 2026-05-08 09:48 | 53.83216 | 54.23601 | 28012 ft | 460 kts | 205° |
| 2026-05-08 09:48 | 53.80360 | 54.21314 | 28242 ft | 461 kts | 205° |
| 2026-05-08 09:48 | 53.77454 | 54.18996 | 28475 ft | 463 kts | 204° |
| 2026-05-08 09:49 | 53.74538 | 54.16670 | 28709 ft | 464 kts | 204° |
| 2026-05-08 09:49 | 53.71611 | 54.14335 | 28928 ft | 466 kts | 204° |
| 2026-05-08 09:49 | 53.68682 | 54.12001 | 29228 ft | 465 kts | 204° |
| 2026-05-08 09:49 | 53.65756 | 54.09677 | 29546 ft | 464 kts | 204° |
| 2026-05-08 09:50 | 53.62837 | 54.07368 | 29858 ft | 463 kts | 204° |
| 2026-05-08 09:50 | 53.59925 | 54.05067 | 30153 ft | 462 kts | 204° |
| 2026-05-08 09:50 | 53.57058 | 54.02798 | 30444 ft | 461 kts | 204° |
| 2026-05-08 09:50 | 53.54155 | 54.00508 | 30732 ft | 461 kts | 204° |
| 2026-05-08 09:51 | 53.51255 | 53.98217 | 31023 ft | 460 kts | 204° |
| 2026-05-08 09:51 | 53.48361 | 53.95934 | 31297 ft | 459 kts | 204° |
| 2026-05-08 09:51 | 53.45467 | 53.93660 | 31571 ft | 459 kts | 204° |
| 2026-05-08 09:51 | 53.42578 | 53.91397 | 31846 ft | 458 kts | 204° |
| 2026-05-08 09:52 | 53.39688 | 53.89136 | 32100 ft | 458 kts | 204° |
| 2026-05-08 09:52 | 53.36842 | 53.86910 | 32344 ft | 458 kts | 204° |
| 2026-05-08 09:52 | 53.33956 | 53.84659 | 32615 ft | 457 kts | 204° |
| 2026-05-08 09:52 | 53.31075 | 53.82418 | 32872 ft | 457 kts | 204° |
| 2026-05-08 09:53 | 53.28197 | 53.80180 | 33119 ft | 456 kts | 204° |
| 2026-05-08 09:53 | 53.25322 | 53.77941 | 33361 ft | 456 kts | 204° |
| 2026-05-08 09:53 | 53.22450 | 53.75704 | 33598 ft | 455 kts | 204° |
| 2026-05-08 09:53 | 53.19581 | 53.73477 | 33808 ft | 455 kts | 204° |
| 2026-05-08 09:54 | 53.16713 | 53.71258 | 33874 ft | 453 kts | 204° |
| 2026-05-08 09:54 | 53.11041 | 53.66884 | 33878 ft | 452 kts | 204° |
| 2026-05-08 09:55 | 53.04370 | 53.61756 | 33877 ft | 452 kts | 204° |
| 2026-05-08 09:55 | 52.99630 | 53.58110 | 33869 ft | 452 kts | 204° |
| 2026-05-08 09:56 | 52.93916 | 53.53753 | 33869 ft | 452 kts | 204° |
| 2026-05-08 09:56 | 52.88200 | 53.49400 | 33869 ft | 452 kts | 204° |
| 2026-05-08 09:57 | 52.79662 | 53.42892 | 33869 ft | 452 kts | 204° |
| 2026-05-08 09:57 | 52.73941 | 53.38550 | 33870 ft | 453 kts | 204° |
| 2026-05-08 09:58 | 52.68213 | 53.34226 | 33869 ft | 453 kts | 204° |
| 2026-05-08 09:58 | 52.62482 | 53.29914 | 33869 ft | 453 kts | 204° |
| 2026-05-08 09:59 | 52.56784 | 53.25632 | 33871 ft | 453 kts | 204° |
| 2026-05-08 09:59 | 52.51041 | 53.21321 | 33876 ft | 454 kts | 204° |
| 2026-05-08 10:00 | 52.45291 | 53.17032 | 33882 ft | 454 kts | 204° |
| 2026-05-08 10:00 | 52.39538 | 53.12748 | 33890 ft | 454 kts | 204° |
| 2026-05-08 10:01 | 52.33823 | 53.08522 | 33885 ft | 454 kts | 204° |
| 2026-05-08 10:01 | 52.28069 | 53.04262 | 33885 ft | 454 kts | 204° |
| 2026-05-08 10:02 | 52.22314 | 52.99998 | 33889 ft | 455 kts | 204° |
| 2026-05-08 10:02 | 52.16550 | 52.95764 | 33890 ft | 454 kts | 203° |
| 2026-05-08 10:03 | 52.10827 | 52.91557 | 33885 ft | 454 kts | 203° |
| 2026-05-08 10:03 | 52.05061 | 52.87339 | 33884 ft | 454 kts | 203° |
| 2026-05-08 10:04 | 51.99293 | 52.83131 | 33884 ft | 455 kts | 203° |
| 2026-05-08 10:04 | 51.93529 | 52.78930 | 33882 ft | 454 kts | 204° |
| 2026-05-08 10:05 | 51.87800 | 52.74765 | 33876 ft | 454 kts | 203° |
| 2026-05-08 10:05 | 51.82025 | 52.70585 | 33879 ft | 455 kts | 204° |
| 2026-05-08 10:06 | 51.76247 | 52.66417 | 33882 ft | 455 kts | 203° |
| 2026-05-08 10:06 | 51.70459 | 52.62255 | 33882 ft | 455 kts | 203° |
| 2026-05-08 10:07 | 51.64666 | 52.58101 | 33883 ft | 456 kts | 203° |
| 2026-05-08 10:07 | 51.58913 | 52.53978 | 33887 ft | 456 kts | 203° |
| 2026-05-08 10:08 | 51.52959 | 52.50597 | 33894 ft | 454 kts | 189° |
| 2026-05-08 10:08 | 51.46700 | 52.49291 | 33885 ft | 453 kts | 186° |
| 2026-05-08 10:09 | 51.40431 | 52.48069 | 33890 ft | 454 kts | 186° |
| 2026-05-08 10:09 | 51.34199 | 52.46854 | 33893 ft | 454 kts | 186° |
| 2026-05-08 10:10 | 51.27924 | 52.45625 | 33897 ft | 454 kts | 186° |
| 2026-05-08 10:10 | 51.21647 | 52.44397 | 33890 ft | 454 kts | 186° |
| 2026-05-08 10:11 | 51.15378 | 52.43174 | 33890 ft | 454 kts | 186° |
| 2026-05-08 10:11 | 51.09144 | 52.41966 | 33887 ft | 454 kts | 186° |
| 2026-05-08 10:12 | 51.02872 | 52.40752 | 33889 ft | 454 kts | 186° |
| 2026-05-08 10:12 | 50.96597 | 52.39531 | 33888 ft | 454 kts | 186° |
| 2026-05-08 10:13 | 50.90321 | 52.38324 | 33887 ft | 454 kts | 186° |
| 2026-05-08 10:13 | 50.84089 | 52.37137 | 33886 ft | 454 kts | 186° |
| 2026-05-08 10:14 | 50.77814 | 52.35941 | 33886 ft | 454 kts | 186° |
| 2026-05-08 10:14 | 50.71531 | 52.34736 | 33885 ft | 454 kts | 186° |
| 2026-05-08 10:15 | 50.65253 | 52.33544 | 33887 ft | 455 kts | 186° |
| 2026-05-08 10:15 | 50.59010 | 52.32359 | 33893 ft | 455 kts | 186° |
| 2026-05-08 10:16 | 50.52733 | 52.31173 | 33885 ft | 454 kts | 186° |
| 2026-05-08 10:16 | 50.46452 | 52.29994 | 33882 ft | 454 kts | 187° |
| 2026-05-08 10:17 | 50.40169 | 52.28801 | 33881 ft | 455 kts | 187° |
| 2026-05-08 10:17 | 50.33883 | 52.27619 | 33883 ft | 455 kts | 186° |
| 2026-05-08 10:18 | 50.27633 | 52.26462 | 33884 ft | 455 kts | 187° |
| 2026-05-08 10:18 | 50.21340 | 52.25286 | 33885 ft | 456 kts | 187° |
| 2026-05-08 10:19 | 50.15040 | 52.24107 | 33887 ft | 456 kts | 187° |
| 2026-05-08 10:20 | 50.05630 | 52.22368 | 33892 ft | 456 kts | 187° |
| 2026-05-08 10:20 | 49.99328 | 52.21197 | 33890 ft | 456 kts | 187° |
| 2026-05-08 10:21 | 49.93020 | 52.20033 | 33896 ft | 456 kts | 187° |
| 2026-05-08 10:21 | 49.86719 | 52.18878 | 33891 ft | 456 kts | 187° |
| 2026-05-08 10:22 | 49.80456 | 52.17738 | 33893 ft | 456 kts | 187° |
| 2026-05-08 10:22 | 49.74154 | 52.16577 | 33892 ft | 456 kts | 187° |
| 2026-05-08 10:23 | 49.67853 | 52.15422 | 33899 ft | 456 kts | 187° |
| 2026-05-08 10:23 | 49.61550 | 52.14278 | 33901 ft | 456 kts | 187° |
| 2026-05-08 10:24 | 49.55287 | 52.13144 | 33899 ft | 457 kts | 187° |
| 2026-05-08 10:24 | 49.48981 | 52.11991 | 33901 ft | 456 kts | 187° |
| 2026-05-08 10:25 | 49.42677 | 52.10856 | 33897 ft | 456 kts | 187° |
| 2026-05-08 10:25 | 49.36379 | 52.09729 | 33900 ft | 456 kts | 187° |
| 2026-05-08 10:26 | 49.30124 | 52.08596 | 33897 ft | 456 kts | 187° |
| 2026-05-08 10:26 | 49.23829 | 52.07460 | 33899 ft | 456 kts | 187° |
| 2026-05-08 10:27 | 49.17567 | 52.06342 | 33898 ft | 455 kts | 187° |
| 2026-05-08 10:27 | 49.11271 | 52.05222 | 33898 ft | 455 kts | 187° |
| 2026-05-08 10:28 | 49.04982 | 52.04111 | 33895 ft | 455 kts | 187° |
| 2026-05-08 10:28 | 48.98736 | 52.03011 | 33895 ft | 455 kts | 187° |
| 2026-05-08 10:29 | 48.92445 | 52.01894 | 33893 ft | 455 kts | 187° |
| 2026-05-08 10:29 | 48.86157 | 52.00781 | 33894 ft | 455 kts | 187° |
| 2026-05-08 10:30 | 48.79865 | 51.99663 | 33895 ft | 455 kts | 187° |
| 2026-05-08 10:30 | 48.73616 | 51.98564 | 33888 ft | 455 kts | 187° |
| 2026-05-08 10:31 | 48.67275 | 51.97456 | 33884 ft | 456 kts | 187° |
| 2026-05-08 10:31 | 48.60978 | 51.96359 | 33884 ft | 455 kts | 187° |
| 2026-05-08 10:32 | 48.54727 | 51.95275 | 33885 ft | 455 kts | 187° |
| 2026-05-08 10:32 | 48.48425 | 51.94189 | 33891 ft | 456 kts | 187° |
| 2026-05-08 10:33 | 48.42128 | 51.93097 | 33893 ft | 456 kts | 188° |
| 2026-05-08 10:33 | 48.35828 | 51.91995 | 33893 ft | 455 kts | 188° |
| 2026-05-08 10:34 | 48.29577 | 51.90912 | 33897 ft | 456 kts | 188° |
| 2026-05-08 10:34 | 48.23277 | 51.89830 | 33899 ft | 456 kts | 188° |
| 2026-05-08 10:35 | 48.16974 | 51.88748 | 33897 ft | 456 kts | 188° |
| 2026-05-08 10:35 | 48.10673 | 51.87664 | 33897 ft | 456 kts | 188° |
| 2026-05-08 10:36 | 48.04373 | 51.86578 | 33900 ft | 456 kts | 188° |
| 2026-05-08 10:36 | 47.98117 | 51.85512 | 33897 ft | 456 kts | 188° |
| 2026-05-08 10:37 | 47.91815 | 51.84448 | 33900 ft | 456 kts | 188° |
| 2026-05-08 10:37 | 47.85516 | 51.83384 | 33899 ft | 456 kts | 188° |
| 2026-05-08 10:38 | 47.79221 | 51.82322 | 33896 ft | 455 kts | 188° |
| 2026-05-08 10:38 | 47.72974 | 51.81258 | 33901 ft | 455 kts | 188° |
| 2026-05-08 10:39 | 47.66684 | 51.80197 | 33898 ft | 455 kts | 188° |
| 2026-05-08 10:39 | 47.60394 | 51.79142 | 33905 ft | 455 kts | 187° |
| 2026-05-08 10:40 | 47.54107 | 51.78092 | 33903 ft | 454 kts | 188° |
| 2026-05-08 10:40 | 47.47823 | 51.77049 | 33905 ft | 454 kts | 187° |
| 2026-05-08 10:41 | 47.41585 | 51.76007 | 33908 ft | 454 kts | 188° |
| 2026-05-08 10:41 | 47.35310 | 51.74958 | 33909 ft | 453 kts | 188° |
| 2026-05-08 10:42 | 47.29043 | 51.73908 | 33911 ft | 453 kts | 188° |
| 2026-05-08 10:42 | 47.22788 | 51.72868 | 33912 ft | 452 kts | 188° |
| 2026-05-08 10:43 | 47.16578 | 51.71847 | 33913 ft | 451 kts | 188° |
| 2026-05-08 10:43 | 47.10343 | 51.70838 | 33910 ft | 451 kts | 187° |
| 2026-05-08 10:44 | 47.04117 | 51.69815 | 33912 ft | 450 kts | 188° |
| 2026-05-08 10:44 | 46.97909 | 51.68778 | 33909 ft | 449 kts | 188° |
| 2026-05-08 10:45 | 46.91751 | 51.67768 | 33908 ft | 448 kts | 188° |
| 2026-05-08 10:45 | 46.85562 | 51.66763 | 33909 ft | 447 kts | 188° |
| 2026-05-08 10:46 | 46.79382 | 51.65764 | 33905 ft | 447 kts | 188° |
| 2026-05-08 10:46 | 46.73209 | 51.64760 | 33909 ft | 446 kts | 188° |
| 2026-05-08 10:47 | 46.67092 | 51.63756 | 33906 ft | 445 kts | 188° |
| 2026-05-08 10:47 | 46.60935 | 51.62759 | 33907 ft | 445 kts | 188° |
| 2026-05-08 10:48 | 46.54786 | 51.61771 | 33909 ft | 444 kts | 188° |
| 2026-05-08 10:48 | 46.48643 | 51.60785 | 33916 ft | 444 kts | 188° |
| 2026-05-08 10:49 | 46.42554 | 51.59796 | 33916 ft | 443 kts | 188° |
| 2026-05-08 10:49 | 46.36429 | 51.58821 | 33918 ft | 442 kts | 188° |
| 2026-05-08 10:50 | 46.30308 | 51.57852 | 33919 ft | 442 kts | 188° |
| 2026-05-08 10:50 | 46.24198 | 51.56869 | 33923 ft | 442 kts | 188° |
| 2026-05-08 10:51 | 46.18141 | 51.55892 | 33923 ft | 441 kts | 188° |
| 2026-05-08 10:51 | 46.12045 | 51.54933 | 33927 ft | 441 kts | 188° |
| 2026-05-08 10:52 | 46.05949 | 51.53975 | 33932 ft | 441 kts | 188° |
| 2026-05-08 10:52 | 45.99853 | 51.53005 | 33937 ft | 441 kts | 188° |
| 2026-05-08 10:53 | 45.93759 | 51.52038 | 33956 ft | 440 kts | 188° |
| 2026-05-08 10:53 | 45.87712 | 51.51094 | 33958 ft | 440 kts | 188° |
| 2026-05-08 10:54 | 45.81631 | 51.50145 | 33970 ft | 439 kts | 188° |
| 2026-05-08 10:54 | 45.75558 | 51.49190 | 33968 ft | 439 kts | 188° |
| 2026-05-08 10:55 | 45.69528 | 51.47947 | 33968 ft | 437 kts | 197° |
| 2026-05-08 10:55 | 45.64064 | 51.44458 | 33970 ft | 433 kts | 213° |
| 2026-05-08 10:56 | 45.58982 | 51.39841 | 33974 ft | 433 kts | 213° |
| 2026-05-08 10:56 | 45.53890 | 51.35234 | 33980 ft | 433 kts | 213° |
| 2026-05-08 10:57 | 45.48799 | 51.30635 | 33989 ft | 433 kts | 213° |
| 2026-05-08 10:57 | 45.41193 | 51.23798 | 33995 ft | 433 kts | 213° |
| 2026-05-08 10:58 | 45.36109 | 51.19228 | 34000 ft | 432 kts | 213° |
| 2026-05-08 10:58 | 45.31023 | 51.14664 | 34003 ft | 432 kts | 213° |
| 2026-05-08 10:59 | 45.25937 | 51.10115 | 34007 ft | 432 kts | 213° |
| 2026-05-08 10:59 | 45.20881 | 51.05606 | 34010 ft | 432 kts | 213° |
| 2026-05-08 11:00 | 45.15785 | 51.01081 | 34019 ft | 432 kts | 213° |
| 2026-05-08 11:00 | 45.10687 | 50.96571 | 34026 ft | 432 kts | 213° |
| 2026-05-08 11:01 | 45.05593 | 50.92057 | 34035 ft | 432 kts | 213° |
| 2026-05-08 11:01 | 45.00506 | 50.87543 | 34040 ft | 431 kts | 213° |
| 2026-05-08 11:02 | 44.92916 | 50.80830 | 34046 ft | 431 kts | 212° |
| 2026-05-08 11:03 | 44.87829 | 50.76360 | 34047 ft | 431 kts | 212° |
| 2026-05-08 11:03 | 44.82741 | 50.71895 | 34049 ft | 431 kts | 212° |
| 2026-05-08 11:04 | 44.77688 | 50.67470 | 34051 ft | 430 kts | 212° |
| 2026-05-08 11:04 | 44.72605 | 50.63024 | 34051 ft | 430 kts | 212° |
| 2026-05-08 11:05 | 44.67523 | 50.58585 | 34054 ft | 430 kts | 212° |
| 2026-05-08 11:05 | 44.62436 | 50.54161 | 34058 ft | 430 kts | 212° |
| 2026-05-08 11:06 | 44.57384 | 50.49772 | 34061 ft | 430 kts | 212° |
| 2026-05-08 11:06 | 44.52297 | 50.45365 | 34063 ft | 430 kts | 212° |
| 2026-05-08 11:07 | 44.47206 | 50.40968 | 34067 ft | 430 kts | 212° |
| 2026-05-08 11:07 | 44.42113 | 50.36576 | 34068 ft | 430 kts | 212° |
| 2026-05-08 11:08 | 44.37055 | 50.32218 | 34073 ft | 430 kts | 212° |
| 2026-05-08 11:08 | 44.31967 | 50.27845 | 34074 ft | 429 kts | 212° |
| 2026-05-08 11:09 | 44.26880 | 50.23484 | 34073 ft | 429 kts | 212° |
| 2026-05-08 11:09 | 44.21794 | 50.19124 | 34075 ft | 429 kts | 212° |
| 2026-05-08 11:10 | 44.16710 | 50.14778 | 34073 ft | 428 kts | 212° |
| 2026-05-08 11:10 | 44.11662 | 50.10475 | 34069 ft | 428 kts | 212° |
| 2026-05-08 11:11 | 44.06572 | 50.06152 | 34072 ft | 428 kts | 212° |
| 2026-05-08 11:11 | 44.01487 | 50.01827 | 34071 ft | 429 kts | 212° |
| 2026-05-08 11:12 | 43.96401 | 49.97501 | 34072 ft | 429 kts | 212° |
| 2026-05-08 11:12 | 43.91335 | 49.93214 | 34074 ft | 430 kts | 212° |
| 2026-05-08 11:13 | 43.86233 | 49.88908 | 34080 ft | 429 kts | 212° |
| 2026-05-08 11:13 | 43.81130 | 49.84616 | 34082 ft | 429 kts | 211° |
| 2026-05-08 11:14 | 43.76059 | 49.80360 | 34091 ft | 429 kts | 212° |
| 2026-05-08 11:14 | 43.70959 | 49.76071 | 34090 ft | 429 kts | 212° |
| 2026-05-08 11:15 | 43.65854 | 49.71791 | 34096 ft | 429 kts | 211° |
| 2026-05-08 11:15 | 43.60745 | 49.67529 | 34097 ft | 429 kts | 211° |
| 2026-05-08 11:16 | 43.55673 | 49.63303 | 34098 ft | 429 kts | 211° |
| 2026-05-08 11:16 | 43.50570 | 49.59048 | 34095 ft | 428 kts | 211° |
| 2026-05-08 11:17 | 43.45465 | 49.54811 | 34096 ft | 428 kts | 211° |
| 2026-05-08 11:17 | 43.40731 | 49.49894 | 34093 ft | 428 kts | 227° |
| 2026-05-08 11:18 | 43.37485 | 49.43137 | 34099 ft | 430 kts | 245° |
| 2026-05-08 11:18 | 43.35099 | 49.35598 | 34100 ft | 430 kts | 245° |
| 2026-05-08 11:19 | 43.32691 | 49.28072 | 34097 ft | 431 kts | 245° |
| 2026-05-08 11:19 | 43.30271 | 49.20553 | 34101 ft | 430 kts | 245° |
| 2026-05-08 11:20 | 43.27868 | 49.13091 | 34101 ft | 430 kts | 245° |
| 2026-05-08 11:20 | 43.25441 | 49.05586 | 34100 ft | 430 kts | 245° |
| 2026-05-08 11:21 | 43.23018 | 48.98072 | 34102 ft | 431 kts | 245° |
| 2026-05-08 11:21 | 43.20588 | 48.90559 | 34102 ft | 431 kts | 245° |
| 2026-05-08 11:22 | 43.18165 | 48.83116 | 34107 ft | 431 kts | 245° |
| 2026-05-08 11:22 | 43.15719 | 48.75612 | 34111 ft | 431 kts | 245° |
| 2026-05-08 11:23 | 43.13261 | 48.68111 | 34112 ft | 432 kts | 245° |
| 2026-05-08 11:23 | 43.10794 | 48.60600 | 34117 ft | 433 kts | 245° |
| 2026-05-08 11:24 | 43.08342 | 48.53140 | 34121 ft | 433 kts | 245° |
| 2026-05-08 11:24 | 43.05870 | 48.45623 | 34126 ft | 433 kts | 245° |
| 2026-05-08 11:25 | 43.03387 | 48.38116 | 34131 ft | 433 kts | 244° |
| 2026-05-08 11:25 | 43.00900 | 48.30626 | 34129 ft | 433 kts | 244° |
| 2026-05-08 11:26 | 42.98427 | 48.23196 | 34129 ft | 433 kts | 244° |
| 2026-05-08 11:26 | 42.95932 | 48.15714 | 34131 ft | 433 kts | 244° |
| 2026-05-08 11:27 | 42.93432 | 48.08238 | 34129 ft | 433 kts | 244° |
| 2026-05-08 11:27 | 42.90927 | 48.00774 | 34129 ft | 433 kts | 244° |
| 2026-05-08 11:28 | 42.88431 | 47.93370 | 34123 ft | 433 kts | 244° |
| 2026-05-08 11:28 | 42.85914 | 47.85895 | 34118 ft | 434 kts | 244° |
| 2026-05-08 11:29 | 42.83392 | 47.78422 | 34118 ft | 435 kts | 244° |
| 2026-05-08 11:29 | 42.80871 | 47.71000 | 34120 ft | 435 kts | 244° |
| 2026-05-08 11:30 | 42.78728 | 47.63303 | 34119 ft | 436 kts | 254° |
| 2026-05-08 11:30 | 42.77133 | 47.55345 | 34122 ft | 436 kts | 253° |
| 2026-05-08 11:31 | 42.75512 | 47.47389 | 34122 ft | 436 kts | 253° |
| 2026-05-08 11:31 | 42.73900 | 47.39495 | 34123 ft | 436 kts | 253° |
| 2026-05-08 11:32 | 42.72267 | 47.31547 | 34126 ft | 436 kts | 253° |
| 2026-05-08 11:32 | 42.70629 | 47.23603 | 34125 ft | 437 kts | 253° |
| 2026-05-08 11:33 | 42.68982 | 47.15648 | 34127 ft | 437 kts | 253° |
| 2026-05-08 11:33 | 42.67346 | 47.07753 | 34130 ft | 437 kts | 253° |
| 2026-05-08 11:34 | 42.65696 | 46.99794 | 34135 ft | 438 kts | 253° |
| 2026-05-08 11:34 | 42.64026 | 46.91842 | 34138 ft | 438 kts | 253° |
| 2026-05-08 11:35 | 42.62348 | 46.83896 | 34139 ft | 438 kts | 253° |
| 2026-05-08 11:35 | 42.60672 | 46.75942 | 34143 ft | 438 kts | 253° |
| 2026-05-08 11:36 | 42.59007 | 46.68040 | 34150 ft | 439 kts | 253° |
| 2026-05-08 11:36 | 42.57325 | 46.60082 | 34153 ft | 439 kts | 253° |
| 2026-05-08 11:37 | 42.55631 | 46.52126 | 34156 ft | 439 kts | 253° |
| 2026-05-08 11:37 | 42.53928 | 46.44173 | 34159 ft | 439 kts | 253° |
| 2026-05-08 11:38 | 42.52215 | 46.36217 | 34162 ft | 441 kts | 252° |
| 2026-05-08 11:38 | 42.50502 | 46.28298 | 34171 ft | 441 kts | 253° |
| 2026-05-08 11:39 | 42.48783 | 46.20338 | 34176 ft | 440 kts | 253° |
| 2026-05-08 11:39 | 42.47058 | 46.12380 | 34177 ft | 440 kts | 253° |
| 2026-05-08 11:40 | 42.45325 | 46.04432 | 34176 ft | 440 kts | 253° |
| 2026-05-08 11:40 | 42.43598 | 45.96544 | 34175 ft | 440 kts | 253° |
| 2026-05-08 11:41 | 42.41851 | 45.88598 | 34174 ft | 440 kts | 253° |
| 2026-05-08 11:41 | 42.40097 | 45.80657 | 34174 ft | 441 kts | 253° |
| 2026-05-08 11:42 | 42.38346 | 45.72712 | 34176 ft | 441 kts | 252° |
| 2026-05-08 11:42 | 42.36596 | 45.64822 | 34175 ft | 441 kts | 252° |
| 2026-05-08 11:43 | 42.34821 | 45.56892 | 34176 ft | 441 kts | 252° |
| 2026-05-08 11:43 | 42.33045 | 45.48946 | 34175 ft | 441 kts | 252° |
| 2026-05-08 11:44 | 42.31265 | 45.41008 | 34174 ft | 442 kts | 252° |
| 2026-05-08 11:44 | 42.29486 | 45.33116 | 34170 ft | 442 kts | 252° |
| 2026-05-08 11:45 | 42.27680 | 45.25170 | 34168 ft | 443 kts | 252° |
| 2026-05-08 11:45 | 42.25873 | 45.17224 | 34166 ft | 443 kts | 252° |
| 2026-05-08 11:46 | 42.24068 | 45.09269 | 34165 ft | 444 kts | 252° |
| 2026-05-08 11:46 | 42.22262 | 45.01358 | 34168 ft | 445 kts | 252° |
| 2026-05-08 11:47 | 42.20435 | 44.93392 | 34166 ft | 444 kts | 252° |
| 2026-05-08 11:47 | 42.18601 | 44.85430 | 34163 ft | 445 kts | 252° |
| 2026-05-08 11:48 | 42.16763 | 44.77462 | 34160 ft | 445 kts | 252° |
| 2026-05-08 11:48 | 42.14929 | 44.69550 | 34157 ft | 446 kts | 252° |
| 2026-05-08 11:49 | 42.13067 | 44.61581 | 34155 ft | 446 kts | 252° |
| 2026-05-08 11:49 | 42.11206 | 44.53615 | 34155 ft | 446 kts | 252° |
| 2026-05-08 11:50 | 42.09335 | 44.45635 | 34157 ft | 446 kts | 252° |
| 2026-05-08 11:50 | 42.07470 | 44.37717 | 34158 ft | 447 kts | 252° |
| 2026-05-08 11:51 | 42.05587 | 44.29745 | 34160 ft | 447 kts | 252° |
| 2026-05-08 11:51 | 42.03701 | 44.21772 | 34159 ft | 447 kts | 252° |
| 2026-05-08 11:52 | 42.01816 | 44.13800 | 34161 ft | 447 kts | 254° |
| 2026-05-08 11:52 | 42.00449 | 44.05710 | 34163 ft | 447 kts | 257° |
| 2026-05-08 11:53 | 41.99129 | 43.97554 | 34166 ft | 447 kts | 257° |
| 2026-05-08 11:53 | 41.97800 | 43.89392 | 34166 ft | 447 kts | 257° |
| 2026-05-08 11:54 | 41.96456 | 43.81223 | 34169 ft | 447 kts | 257° |
| 2026-05-08 11:54 | 41.95114 | 43.73128 | 34171 ft | 447 kts | 257° |
| 2026-05-08 11:55 | 41.93764 | 43.64979 | 34170 ft | 447 kts | 257° |
| 2026-05-08 11:55 | 41.92404 | 43.56825 | 34171 ft | 448 kts | 257° |
| 2026-05-08 11:56 | 41.91040 | 43.48672 | 34174 ft | 448 kts | 257° |
| 2026-05-08 11:56 | 41.89686 | 43.40577 | 34180 ft | 447 kts | 257° |
| 2026-05-08 11:57 | 41.88312 | 43.32431 | 34179 ft | 447 kts | 257° |
| 2026-05-08 11:57 | 41.86931 | 43.24300 | 34180 ft | 447 kts | 257° |
| 2026-05-08 11:58 | 41.85550 | 43.16185 | 34176 ft | 446 kts | 257° |
| 2026-05-08 11:58 | 41.84163 | 43.08073 | 34175 ft | 446 kts | 257° |
| 2026-05-08 11:59 | 41.82072 | 42.95965 | 34167 ft | 446 kts | 257° |
| 2026-05-08 11:59 | 41.80670 | 42.87865 | 34162 ft | 446 kts | 257° |
| 2026-05-08 12:00 | 41.79258 | 42.79757 | 34161 ft | 447 kts | 257° |
| 2026-05-08 12:00 | 41.77835 | 42.71645 | 34160 ft | 448 kts | 257° |
| 2026-05-08 12:01 | 41.76427 | 42.63580 | 34158 ft | 448 kts | 257° |
| 2026-05-08 12:01 | 41.75004 | 42.55463 | 34159 ft | 448 kts | 257° |
| 2026-05-08 12:02 | 41.73563 | 42.47340 | 34159 ft | 448 kts | 257° |
| 2026-05-08 12:02 | 41.72117 | 42.39226 | 34160 ft | 449 kts | 257° |
| 2026-05-08 12:03 | 41.70672 | 42.31156 | 34163 ft | 449 kts | 257° |
| 2026-05-08 12:03 | 41.69214 | 42.23027 | 34165 ft | 450 kts | 257° |
| 2026-05-08 12:04 | 41.67753 | 42.14887 | 34172 ft | 450 kts | 257° |
| 2026-05-08 12:04 | 41.66279 | 42.06755 | 34179 ft | 450 kts | 257° |
| 2026-05-08 12:05 | 41.64802 | 41.98625 | 34187 ft | 450 kts | 257° |
| 2026-05-08 12:05 | 41.63327 | 41.90551 | 34194 ft | 450 kts | 257° |
| 2026-05-08 12:06 | 41.61840 | 41.82427 | 34201 ft | 450 kts | 257° |
| 2026-05-08 12:06 | 41.60344 | 41.74290 | 34221 ft | 451 kts | 257° |
| 2026-05-08 12:07 | 41.58844 | 41.66177 | 34223 ft | 450 kts | 257° |
| 2026-05-08 12:07 | 41.57345 | 41.58077 | 34218 ft | 449 kts | 257° |
| 2026-05-08 12:08 | 41.56600 | 41.54069 | 34378 ft | 451 kts | 257° |
| 2026-05-08 12:08 | 41.55837 | 41.50003 | 34613 ft | 452 kts | 257° |
| 2026-05-08 12:08 | 41.55049 | 41.45945 | 34857 ft | 452 kts | 253° |
| 2026-05-08 12:08 | 41.53939 | 41.42028 | 35105 ft | 452 kts | 247° |
| 2026-05-08 12:09 | 41.52685 | 41.38183 | 35339 ft | 452 kts | 247° |
| 2026-05-08 12:09 | 41.51434 | 41.34348 | 35578 ft | 451 kts | 247° |
| 2026-05-08 12:09 | 41.50180 | 41.30516 | 35800 ft | 451 kts | 247° |
| 2026-05-08 12:09 | 41.48926 | 41.26683 | 36010 ft | 450 kts | 247° |
| 2026-05-08 12:10 | 41.47689 | 41.22905 | 36170 ft | 451 kts | 247° |
| 2026-05-08 12:10 | 41.46433 | 41.19073 | 36204 ft | 451 kts | 247° |
| 2026-05-08 12:10 | 41.43916 | 41.11417 | 36209 ft | 450 kts | 247° |
| 2026-05-08 12:11 | 41.41405 | 41.03772 | 36211 ft | 450 kts | 247° |
| 2026-05-08 12:11 | 41.38892 | 40.96137 | 36211 ft | 450 kts | 247° |
| 2026-05-08 12:12 | 41.36387 | 40.88553 | 36220 ft | 450 kts | 247° |
| 2026-05-08 12:12 | 41.33850 | 40.80922 | 36224 ft | 451 kts | 247° |
| 2026-05-08 12:13 | 41.31313 | 40.73296 | 36227 ft | 451 kts | 247° |
| 2026-05-08 12:13 | 41.28771 | 40.65671 | 36230 ft | 451 kts | 247° |
| 2026-05-08 12:14 | 41.26238 | 40.58106 | 36229 ft | 451 kts | 247° |
| 2026-05-08 12:14 | 41.23675 | 40.50490 | 36231 ft | 451 kts | 247° |
| 2026-05-08 12:15 | 41.21106 | 40.42884 | 36233 ft | 451 kts | 247° |
| 2026-05-08 12:15 | 41.18535 | 40.35283 | 36231 ft | 451 kts | 247° |
| 2026-05-08 12:16 | 41.15987 | 40.27733 | 36232 ft | 451 kts | 247° |
| 2026-05-08 12:16 | 41.13419 | 40.20134 | 36231 ft | 452 kts | 246° |
| 2026-05-08 12:17 | 41.10840 | 40.12546 | 36230 ft | 451 kts | 246° |
| 2026-05-08 12:17 | 41.08251 | 40.04957 | 36233 ft | 452 kts | 246° |
| 2026-05-08 12:18 | 41.05679 | 39.97440 | 36235 ft | 451 kts | 246° |
| 2026-05-08 12:18 | 41.03079 | 39.89883 | 36236 ft | 451 kts | 246° |
| 2026-05-08 12:19 | 41.00474 | 39.82329 | 36236 ft | 451 kts | 246° |
| 2026-05-08 12:19 | 40.97744 | 39.74858 | 36237 ft | 451 kts | 243° |
| 2026-05-08 12:20 | 40.94721 | 39.67583 | 36236 ft | 451 kts | 242° |
| 2026-05-08 12:20 | 40.91653 | 39.60420 | 36235 ft | 451 kts | 242° |
| 2026-05-08 12:21 | 40.88621 | 39.53174 | 36236 ft | 450 kts | 243° |
| 2026-05-08 12:21 | 40.85623 | 39.45911 | 36236 ft | 450 kts | 243° |
| 2026-05-08 12:22 | 40.82621 | 39.38657 | 36238 ft | 450 kts | 243° |
| 2026-05-08 12:22 | 40.79628 | 39.31467 | 36236 ft | 450 kts | 242° |
| 2026-05-08 12:23 | 40.76608 | 39.24235 | 36236 ft | 450 kts | 242° |
| 2026-05-08 12:23 | 40.73586 | 39.17015 | 36236 ft | 449 kts | 242° |
| 2026-05-08 12:24 | 40.70562 | 39.09802 | 36237 ft | 449 kts | 242° |
| 2026-05-08 12:24 | 40.67531 | 39.02598 | 36237 ft | 449 kts | 242° |
| 2026-05-08 12:25 | 40.64515 | 38.95465 | 36266 ft | 448 kts | 242° |
| 2026-05-08 12:25 | 40.61479 | 38.88295 | 36254 ft | 448 kts | 242° |
| 2026-05-08 12:26 | 40.58439 | 38.81124 | 36257 ft | 448 kts | 242° |
| 2026-05-08 12:26 | 40.55407 | 38.73956 | 36240 ft | 448 kts | 242° |
| 2026-05-08 12:27 | 40.52387 | 38.66851 | 36240 ft | 448 kts | 242° |
| 2026-05-08 12:27 | 40.49339 | 38.59712 | 36236 ft | 448 kts | 242° |
| 2026-05-08 12:28 | 40.46285 | 38.52588 | 36237 ft | 448 kts | 242° |
| 2026-05-08 12:28 | 40.43228 | 38.45469 | 36234 ft | 447 kts | 242° |
| 2026-05-08 12:29 | 40.40200 | 38.38403 | 36234 ft | 447 kts | 242° |
| 2026-05-08 12:29 | 40.37153 | 38.31295 | 36236 ft | 447 kts | 242° |
| 2026-05-08 12:30 | 40.34091 | 38.24208 | 36239 ft | 447 kts | 242° |
| 2026-05-08 12:30 | 40.31037 | 38.17182 | 36237 ft | 447 kts | 242° |
| 2026-05-08 12:31 | 40.27967 | 38.10109 | 36241 ft | 446 kts | 242° |
| 2026-05-08 12:31 | 40.24903 | 38.03039 | 36244 ft | 447 kts | 242° |
| 2026-05-08 12:32 | 40.21836 | 37.95978 | 36242 ft | 446 kts | 242° |
| 2026-05-08 12:32 | 40.18760 | 37.88925 | 36241 ft | 446 kts | 242° |
| 2026-05-08 12:33 | 40.15699 | 37.81936 | 36238 ft | 446 kts | 242° |
| 2026-05-08 12:33 | 40.12611 | 37.74909 | 36237 ft | 446 kts | 242° |
| 2026-05-08 12:34 | 40.10038 | 37.69075 | 36239 ft | 446 kts | 242° |
| 2026-05-08 12:34 | 40.06941 | 37.62061 | 36242 ft | 446 kts | 242° |
| 2026-05-08 12:35 | 40.03347 | 37.53914 | 36240 ft | 446 kts | 242° |
| 2026-05-08 12:35 | 40.00252 | 37.46915 | 36243 ft | 446 kts | 242° |
| 2026-05-08 12:36 | 39.97151 | 37.39922 | 36247 ft | 445 kts | 242° |
| 2026-05-08 12:36 | 39.94569 | 37.34122 | 36252 ft | 445 kts | 242° |
| 2026-05-08 12:37 | 39.91461 | 37.27154 | 36258 ft | 445 kts | 242° |
| 2026-05-08 12:37 | 39.88286 | 37.20244 | 36262 ft | 446 kts | 236° |
| 2026-05-08 12:38 | 39.84241 | 37.14178 | 36269 ft | 447 kts | 230° |
| 2026-05-08 12:38 | 39.80029 | 37.08210 | 36275 ft | 448 kts | 229° |
| 2026-05-08 12:39 | 39.75139 | 37.01283 | 36283 ft | 447 kts | 230° |
| 2026-05-08 12:39 | 39.71640 | 36.96333 | 36288 ft | 447 kts | 230° |
| 2026-05-08 12:40 | 39.67429 | 36.90388 | 36290 ft | 447 kts | 229° |
| 2026-05-08 12:40 | 39.63214 | 36.84448 | 36289 ft | 447 kts | 229° |
| 2026-05-08 12:41 | 39.58999 | 36.78515 | 36289 ft | 448 kts | 229° |
| 2026-05-08 12:41 | 39.54775 | 36.72583 | 36284 ft | 447 kts | 229° |
| 2026-05-08 12:42 | 39.50578 | 36.66708 | 36280 ft | 447 kts | 229° |
| 2026-05-08 12:42 | 39.46352 | 36.60796 | 36273 ft | 447 kts | 229° |
| 2026-05-08 12:43 | 39.42121 | 36.54900 | 36268 ft | 447 kts | 229° |
| 2026-05-08 12:43 | 39.37897 | 36.48999 | 36267 ft | 447 kts | 229° |
| 2026-05-08 12:44 | 39.33697 | 36.43145 | 36266 ft | 447 kts | 229° |
| 2026-05-08 12:44 | 39.29460 | 36.37268 | 36264 ft | 447 kts | 229° |
| 2026-05-08 12:45 | 39.25213 | 36.31398 | 36262 ft | 447 kts | 229° |
| 2026-05-08 12:45 | 39.20967 | 36.25541 | 36253 ft | 447 kts | 229° |
| 2026-05-08 12:46 | 39.16754 | 36.19722 | 36248 ft | 447 kts | 229° |
| 2026-05-08 12:46 | 39.12513 | 36.13873 | 36249 ft | 447 kts | 229° |
| 2026-05-08 12:47 | 39.08270 | 36.08027 | 36243 ft | 446 kts | 229° |
| 2026-05-08 12:47 | 39.04030 | 36.02204 | 36242 ft | 446 kts | 229° |
| 2026-05-08 12:48 | 38.99808 | 35.96427 | 36239 ft | 446 kts | 229° |
| 2026-05-08 12:48 | 38.95554 | 35.90618 | 36240 ft | 446 kts | 231° |
| 2026-05-08 12:49 | 38.91799 | 35.84330 | 36238 ft | 443 kts | 236° |
| 2026-05-08 12:49 | 38.88158 | 35.77958 | 36234 ft | 443 kts | 236° |
| 2026-05-08 12:50 | 38.84529 | 35.71639 | 36233 ft | 443 kts | 236° |
| 2026-05-08 12:50 | 38.80873 | 35.65290 | 36232 ft | 442 kts | 236° |
| 2026-05-08 12:51 | 38.75383 | 35.55781 | 36235 ft | 443 kts | 236° |
| 2026-05-08 12:52 | 38.71717 | 35.49445 | 36235 ft | 442 kts | 236° |
| 2026-05-08 12:52 | 38.66245 | 35.39997 | 36237 ft | 443 kts | 236° |
| 2026-05-08 12:53 | 38.62571 | 35.33676 | 36239 ft | 443 kts | 236° |
| 2026-05-08 12:53 | 38.58895 | 35.27363 | 36238 ft | 442 kts | 236° |
| 2026-05-08 12:54 | 38.55213 | 35.21063 | 36233 ft | 442 kts | 236° |
| 2026-05-08 12:54 | 38.51552 | 35.14810 | 36228 ft | 442 kts | 237° |
| 2026-05-08 12:55 | 38.47870 | 35.08517 | 36227 ft | 442 kts | 237° |
| 2026-05-08 12:55 | 38.44181 | 35.02231 | 36229 ft | 442 kts | 236° |
| 2026-05-08 12:56 | 38.40489 | 34.95955 | 36228 ft | 442 kts | 237° |
| 2026-05-08 12:56 | 38.36818 | 34.89718 | 36229 ft | 443 kts | 237° |
| 2026-05-08 12:57 | 38.33122 | 34.83448 | 36227 ft | 442 kts | 237° |
| 2026-05-08 12:57 | 38.29420 | 34.77189 | 36228 ft | 442 kts | 237° |
| 2026-05-08 12:58 | 38.25707 | 34.70943 | 36226 ft | 442 kts | 237° |
| 2026-05-08 12:58 | 38.21995 | 34.64703 | 36226 ft | 443 kts | 237° |
| 2026-05-08 12:59 | 38.18309 | 34.58491 | 36230 ft | 443 kts | 237° |
| 2026-05-08 12:59 | 38.14585 | 34.52237 | 36225 ft | 443 kts | 237° |
| 2026-05-08 13:00 | 38.10861 | 34.46000 | 36227 ft | 443 kts | 237° |
| 2026-05-08 13:00 | 38.07136 | 34.39764 | 36219 ft | 443 kts | 237° |
| 2026-05-08 13:01 | 38.03426 | 34.33584 | 36215 ft | 444 kts | 237° |
| 2026-05-08 13:01 | 37.99688 | 34.27362 | 36214 ft | 443 kts | 237° |
| 2026-05-08 13:02 | 37.95950 | 34.21149 | 36216 ft | 443 kts | 237° |
| 2026-05-08 13:02 | 37.92206 | 34.14950 | 36205 ft | 443 kts | 237° |
| 2026-05-08 13:03 | 37.88489 | 34.08804 | 36204 ft | 442 kts | 237° |
| 2026-05-08 13:03 | 37.84753 | 34.02615 | 36203 ft | 442 kts | 237° |
| 2026-05-08 13:04 | 37.81014 | 33.96434 | 36207 ft | 442 kts | 237° |
| 2026-05-08 13:04 | 37.77272 | 33.90272 | 36200 ft | 442 kts | 237° |
| 2026-05-08 13:05 | 37.73525 | 33.84116 | 36188 ft | 442 kts | 237° |
| 2026-05-08 13:05 | 37.69800 | 33.78010 | 36187 ft | 442 kts | 237° |
| 2026-05-08 13:06 | 37.66039 | 33.71865 | 36195 ft | 443 kts | 237° |
| 2026-05-08 13:06 | 37.62272 | 33.65718 | 36196 ft | 443 kts | 237° |
| 2026-05-08 13:07 | 37.58512 | 33.59575 | 36195 ft | 442 kts | 237° |
| 2026-05-08 13:07 | 37.54771 | 33.53472 | 36196 ft | 443 kts | 237° |
| 2026-05-08 13:08 | 37.50992 | 33.47335 | 36196 ft | 443 kts | 237° |
| 2026-05-08 13:08 | 37.47223 | 33.41213 | 36186 ft | 443 kts | 237° |
| 2026-05-08 13:09 | 37.43450 | 33.35097 | 36197 ft | 443 kts | 237° |
| 2026-05-08 13:09 | 37.39694 | 33.29026 | 36198 ft | 443 kts | 237° |
| 2026-05-08 13:10 | 37.35906 | 33.22924 | 36199 ft | 442 kts | 237° |
| 2026-05-08 13:10 | 37.32122 | 33.16835 | 36201 ft | 442 kts | 237° |
| 2026-05-08 13:11 | 37.28332 | 33.10740 | 36203 ft | 443 kts | 237° |
| 2026-05-08 13:11 | 37.24560 | 33.04695 | 36202 ft | 442 kts | 237° |
| 2026-05-08 13:12 | 37.20765 | 32.98622 | 36199 ft | 442 kts | 237° |
| 2026-05-08 13:12 | 37.16969 | 32.92559 | 36198 ft | 442 kts | 237° |
| 2026-05-08 13:13 | 37.13180 | 32.86520 | 36195 ft | 437 kts | 237° |
| 2026-05-08 13:13 | 37.11302 | 32.83532 | 35949 ft | 438 kts | 237° |
| 2026-05-08 13:13 | 37.09417 | 32.80527 | 35701 ft | 439 kts | 237° |
| 2026-05-08 13:14 | 37.07551 | 32.77553 | 35454 ft | 440 kts | 237° |
| 2026-05-08 13:14 | 37.05658 | 32.74539 | 35205 ft | 441 kts | 237° |
| 2026-05-08 13:14 | 37.03768 | 32.71525 | 34956 ft | 441 kts | 237° |
| 2026-05-08 13:14 | 37.01869 | 32.68500 | 34701 ft | 441 kts | 237° |
| 2026-05-08 13:15 | 36.99968 | 32.65479 | 34445 ft | 442 kts | 237° |
| 2026-05-08 13:15 | 36.98135 | 32.62413 | 34202 ft | 438 kts | 244° |
| 2026-05-08 13:15 | 36.96915 | 32.58998 | 34149 ft | 426 kts | 259° |
| 2026-05-08 13:15 | 36.96439 | 32.55374 | 34164 ft | 420 kts | 273° |
| 2026-05-08 13:16 | 36.97161 | 32.48217 | 34163 ft | 415 kts | 283° |
| 2026-05-08 13:16 | 36.97637 | 32.44698 | 33745 ft | 417 kts | 283° |
| 2026-05-08 13:16 | 36.98123 | 32.41132 | 33136 ft | 415 kts | 283° |
| 2026-05-08 13:17 | 36.98605 | 32.37577 | 32537 ft | 414 kts | 282° |
| 2026-05-08 13:17 | 36.99083 | 32.34034 | 31959 ft | 412 kts | 282° |
| 2026-05-08 13:17 | 36.99553 | 32.30506 | 31382 ft | 410 kts | 282° |
| 2026-05-08 13:17 | 37.00018 | 32.26988 | 30811 ft | 409 kts | 282° |
| 2026-05-08 13:18 | 37.00480 | 32.23478 | 30229 ft | 408 kts | 282° |
| 2026-05-08 13:18 | 37.00940 | 32.19985 | 29652 ft | 406 kts | 282° |
| 2026-05-08 13:18 | 37.01388 | 32.16550 | 29083 ft | 405 kts | 281° |
| 2026-05-08 13:18 | 37.01838 | 32.13079 | 28507 ft | 404 kts | 281° |
| 2026-05-08 13:19 | 37.02288 | 32.09614 | 27930 ft | 402 kts | 281° |
| 2026-05-08 13:19 | 37.02735 | 32.06172 | 27354 ft | 401 kts | 281° |
| 2026-05-08 13:19 | 37.03177 | 32.02741 | 26779 ft | 399 kts | 281° |
| 2026-05-08 13:19 | 37.03617 | 31.99318 | 26201 ft | 397 kts | 281° |
| 2026-05-08 13:20 | 37.04058 | 31.95915 | 25624 ft | 395 kts | 281° |
| 2026-05-08 13:20 | 37.04499 | 31.92522 | 25048 ft | 393 kts | 281° |
| 2026-05-08 13:20 | 37.04937 | 31.89152 | 24472 ft | 392 kts | 281° |
| 2026-05-08 13:20 | 37.05373 | 31.85778 | 23894 ft | 392 kts | 280° |
| 2026-05-08 13:21 | 37.05798 | 31.82466 | 23325 ft | 390 kts | 280° |
| 2026-05-08 13:21 | 37.06223 | 31.79124 | 22742 ft | 388 kts | 280° |
| 2026-05-08 13:21 | 37.06643 | 31.75797 | 22172 ft | 386 kts | 280° |
| 2026-05-08 13:21 | 37.07064 | 31.72484 | 21595 ft | 384 kts | 280° |
| 2026-05-08 13:22 | 37.07485 | 31.69184 | 21016 ft | 382 kts | 280° |
| 2026-05-08 13:22 | 37.07901 | 31.65903 | 20434 ft | 381 kts | 280° |
| 2026-05-08 13:22 | 37.08315 | 31.62635 | 19838 ft | 380 kts | 280° |
| 2026-05-08 13:22 | 37.08729 | 31.59372 | 19210 ft | 379 kts | 280° |
| 2026-05-08 13:23 | 37.09137 | 31.56111 | 18583 ft | 379 kts | 279° |
| 2026-05-08 13:23 | 37.09543 | 31.52840 | 17897 ft | 381 kts | 279° |
| 2026-05-08 13:23 | 37.09944 | 31.49601 | 17205 ft | 382 kts | 279° |
| 2026-05-08 13:23 | 37.10352 | 31.46305 | 16502 ft | 384 kts | 279° |
| 2026-05-08 13:24 | 37.10766 | 31.42986 | 15750 ft | 387 kts | 279° |
| 2026-05-08 13:24 | 37.11179 | 31.39684 | 14992 ft | 380 kts | 279° |
| 2026-05-08 13:24 | 37.11585 | 31.36437 | 14237 ft | 374 kts | 279° |
| 2026-05-08 13:24 | 37.11986 | 31.33226 | 13358 ft | 372 kts | 279° |
| 2026-05-08 13:25 | 37.12356 | 31.30030 | 12481 ft | 369 kts | 278° |
| 2026-05-08 13:25 | 37.12655 | 31.26851 | 11609 ft | 366 kts | 276° |
| 2026-05-08 13:25 | 37.12907 | 31.23770 | 11167 ft | 352 kts | 276° |
| 2026-05-08 13:25 | 37.13227 | 31.20806 | 10764 ft | 337 kts | 281° |
| 2026-05-08 13:26 | 37.13685 | 31.17953 | 10249 ft | 328 kts | 282° |
| 2026-05-08 13:26 | 37.14135 | 31.15243 | 10113 ft | 308 kts | 282° |
| 2026-05-08 13:26 | 37.14568 | 31.12683 | 9808 ft | 296 kts | 282° |
| 2026-05-08 13:26 | 37.14994 | 31.10190 | 9481 ft | 290 kts | 282° |
| 2026-05-08 13:27 | 37.15419 | 31.07697 | 8873 ft | 294 kts | 282° |
| 2026-05-08 13:27 | 37.15838 | 31.05207 | 8457 ft | 289 kts | 282° |
| 2026-05-08 13:27 | 37.16251 | 31.02748 | 7876 ft | 288 kts | 282° |
| 2026-05-08 13:27 | 37.16663 | 31.00307 | 7300 ft | 284 kts | 282° |
| 2026-05-08 13:28 | 37.17065 | 30.97932 | 6543 ft | 281 kts | 282° |
| 2026-05-08 13:28 | 37.17461 | 30.95579 | 6095 ft | 266 kts | 282° |
| 2026-05-08 13:28 | 37.17824 | 30.93407 | 6039 ft | 247 kts | 282° |
| 2026-05-08 13:28 | 37.18170 | 30.91344 | 6006 ft | 234 kts | 282° |
| 2026-05-08 13:29 | 37.18497 | 30.89391 | 5894 ft | 224 kts | 282° |
| 2026-05-08 13:29 | 37.18680 | 30.87479 | 5763 ft | 220 kts | 265° |
| 2026-05-08 13:29 | 37.18108 | 30.85739 | 5382 ft | 217 kts | 230° |
| 2026-05-08 13:29 | 37.16851 | 30.84733 | 5159 ft | 218 kts | 195° |
| 2026-05-08 13:30 | 37.15369 | 30.84464 | 4891 ft | 218 kts | 186° |
| 2026-05-08 13:30 | 37.13861 | 30.84273 | 4606 ft | 217 kts | 186° |
| 2026-05-08 13:30 | 37.12361 | 30.84073 | 4320 ft | 216 kts | 186° |
| 2026-05-08 13:30 | 37.10870 | 30.83868 | 4035 ft | 215 kts | 187° |
| 2026-05-08 13:31 | 37.09387 | 30.83661 | 3751 ft | 214 kts | 186° |
| 2026-05-08 13:31 | 37.07906 | 30.83457 | 3465 ft | 213 kts | 187° |
| 2026-05-08 13:31 | 37.06452 | 30.83256 | 3179 ft | 204 kts | 187° |
| 2026-05-08 13:31 | 37.05074 | 30.83064 | 2917 ft | 195 kts | 186° |
| 2026-05-08 13:32 | 37.03758 | 30.82883 | 2666 ft | 190 kts | 187° |
| 2026-05-08 13:32 | 37.02449 | 30.82702 | 2416 ft | 188 kts | 186° |
| 2026-05-08 13:32 | 37.01156 | 30.82524 | 2168 ft | 186 kts | 186° |
| 2026-05-08 13:32 | 36.99874 | 30.82347 | 1921 ft | 185 kts | 186° |
| 2026-05-08 13:33 | 36.98619 | 30.82173 | 1699 ft | 174 kts | 185° |
| 2026-05-08 13:33 | 36.97490 | 30.82017 | 1461 ft | 154 kts | 185° |
| 2026-05-08 13:33 | 36.96454 | 30.81874 | 1260 ft | 146 kts | 185° |
| 2026-05-08 13:33 | 36.95456 | 30.81737 | 1068 ft | 143 kts | 185° |
| 2026-05-08 13:34 | 36.94471 | 30.81601 | 881 ft | 142 kts | 185° |
| 2026-05-08 13:34 | 36.93492 | 30.81466 | 689 ft | 141 kts | 185° |
| 2026-05-08 13:34 | 36.92531 | 30.81333 | 517 ft | 141 kts | 185° |
| 2026-05-08 13:34 | 36.91562 | 30.81202 | 307 ft | 139 kts | 185° |
| 2026-05-08 13:35 | 36.90613 | 30.81067 | 192 ft | 131 kts | 186° |
| 2026-05-08 13:35 | 36.89897 | 30.80973 | 195 ft | 75 kts | 187° |
| 2026-05-08 13:35 | 36.89547 | 30.80923 | 196 ft | 26 kts | 186° |
| 2026-05-08 13:35 | 36.89426 | 30.80900 | 189 ft | 20 kts | 193° |
| 2026-05-08 13:36 | 36.89265 | 30.80813 | 190 ft | 29 kts | 212° |
| 2026-05-08 13:36 | 36.89167 | 30.80688 | 191 ft | 15 kts | 273° |
| 2026-05-08 13:36 | 36.89243 | 30.80648 | 192 ft | 12 kts | 5° |
| 2026-05-08 13:36 | 36.89324 | 30.80657 | 195 ft | 11 kts | 5° |
| 2026-05-08 13:37 | 36.89412 | 30.80668 | 197 ft | 16 kts | 6° |
| 2026-05-08 13:37 | 36.89522 | 30.80680 | 197 ft | 13 kts | 353° |
| 2026-05-08 13:37 | 36.89561 | 30.80629 | 198 ft | 7 kts | 279° |
| 2026-05-08 13:37 | 36.89567 | 30.80571 | 192 ft | 6 kts | 277° |
| 2026-05-08 13:38 | 36.89572 | 30.80522 | 196 ft | 4 kts | 277° |
| 2026-05-08 13:38 | 36.89574 | 30.80509 | 195 ft | 1 kts | 293° |
| 2026-05-08 13:38 | 36.89599 | 30.80434 | 192 ft | 17 kts | 268° |
| 2026-05-08 13:38 | 36.89627 | 30.80303 | 197 ft | 18 kts | 330° |
| 2026-05-08 13:39 | 36.89701 | 30.80233 | 200 ft | 4 kts | 316° |
| 2026-05-08 13:39 | 36.89708 | 30.80224 | 192 ft | 0 kts | 316° |